sensor_id;sensor_type;location;lat;lon;timestamp;temperature;humidity
12152;DHT22;6139;51.274;7.128;2022-09-09T00:00:13;16.20;99.90
12152;DHT22;6139;51.274;7.128;2022-09-09T00:01:27;16.20;99.90
12152;DHT22;6139;51.274;7.128;2022-09-09T00:02:31;16.20;99.90
12152;DHT22;6139;51.274;7.128;2022-09-09T00:03:40;16.20;99.90
12152;DHT22;6139;51.274;7.128;2022-09-09T00:04:48;16.20;99.90
12152;DHT22;6139;51.274;7.128;2022-09-09T00:06:01;16.20;99.90
12152;DHT22;6139;51.274;7.128;2022-09-09T00:07:10;16.20;99.90
12152;DHT22;6139;51.274;7.128;2022-09-09T00:08:19;16.20;99.90
12152;DHT22;6139;51.274;7.128;2022-09-09T00:09:25;16.20;99.90
12152;DHT22;6139;51.274;7.128;2022-09-09T00:10:29;16.20;99.90
12152;DHT22;6139;51.274;7.128;2022-09-09T00:11:39;16.20;99.90
12152;DHT22;6139;51.274;7.128;2022-09-09T00:12:48;16.20;99.90
12152;DHT22;6139;51.274;7.128;2022-09-09T00:13:54;16.20;99.90
12152;DHT22;6139;51.274;7.128;2022-09-09T00:15:02;16.10;99.90
12152;DHT22;6139;51.274;7.128;2022-09-09T00:16:09;16.10;99.90
12152;DHT22;6139;51.274;7.128;2022-09-09T00:17:25;16.10;99.90
12152;DHT22;6139;51.274;7.128;2022-09-09T00:18:45;16.10;99.90
12152;DHT22;6139;51.274;7.128;2022-09-09T00:19:52;16.10;99.90
12152;DHT22;6139;51.274;7.128;2022-09-09T00:20:59;16.10;99.90
12152;DHT22;6139;51.274;7.128;2022-09-09T00:22:18;16.10;99.90
12152;DHT22;6139;51.274;7.128;2022-09-09T00:23:24;16.10;99.90
12152;DHT22;6139;51.274;7.128;2022-09-09T00:24:29;16.10;99.90
12152;DHT22;6139;51.274;7.128;2022-09-09T00:25:37;16.10;99.90
12152;DHT22;6139;51.274;7.128;2022-09-09T00:26:43;16.10;99.90
12152;DHT22;6139;51.274;7.128;2022-09-09T00:27:47;16.10;99.90
12152;DHT22;6139;51.274;7.128;2022-09-09T00:28:55;16.10;99.90
12152;DHT22;6139;51.274;7.128;2022-09-09T00:30:12;16.10;99.90
12152;DHT22;6139;51.274;7.128;2022-09-09T00:31:18;16.10;99.90
12152;DHT22;6139;51.274;7.128;2022-09-09T00:32:22;16.10;99.90
12152;DHT22;6139;51.274;7.128;2022-09-09T00:33:25;16.00;99.90
12152;DHT22;6139;51.274;7.128;2022-09-09T00:34:28;16.00;99.90
12152;DHT22;6139;51.274;7.128;2022-09-09T00:35:33;16.00;99.90
12152;DHT22;6139;51.274;7.128;2022-09-09T00:36:36;16.00;99.90
12152;DHT22;6139;51.274;7.128;2022-09-09T00:37:39;16.00;99.90
12152;DHT22;6139;51.274;7.128;2022-09-09T00:38:46;16.00;99.90
12152;DHT22;6139;51.274;7.128;2022-09-09T00:39:50;16.00;99.90
12152;DHT22;6139;51.274;7.128;2022-09-09T00:40:56;16.00;99.90
12152;DHT22;6139;51.274;7.128;2022-09-09T00:42:13;16.00;99.90
12152;DHT22;6139;51.274;7.128;2022-09-09T00:43:24;16.00;99.90
12152;DHT22;6139;51.274;7.128;2022-09-09T00:44:31;16.00;99.90
12152;DHT22;6139;51.274;7.128;2022-09-09T00:45:51;16.00;99.90
12152;DHT22;6139;51.274;7.128;2022-09-09T00:47:03;16.00;99.90
12152;DHT22;6139;51.274;7.128;2022-09-09T00:48:10;16.00;99.90
12152;DHT22;6139;51.274;7.128;2022-09-09T00:49:22;16.00;99.90
12152;DHT22;6139;51.274;7.128;2022-09-09T00:50:43;15.90;99.90
12152;DHT22;6139;51.274;7.128;2022-09-09T00:51:54;15.90;99.90
12152;DHT22;6139;51.274;7.128;2022-09-09T00:53:09;16.00;99.90
12152;DHT22;6139;51.274;7.128;2022-09-09T00:54:28;15.90;99.90
12152;DHT22;6139;51.274;7.128;2022-09-09T00:55:40;15.90;99.90
12152;DHT22;6139;51.274;7.128;2022-09-09T00:56:54;15.90;99.90
12152;DHT22;6139;51.274;7.128;2022-09-09T00:57:59;15.90;99.90
12152;DHT22;6139;51.274;7.128;2022-09-09T00:59:05;15.90;99.90
12152;DHT22;6139;51.274;7.128;2022-09-09T01:00:19;15.90;99.90
12152;DHT22;6139;51.274;7.128;2022-09-09T01:01:21;15.90;99.90
12152;DHT22;6139;51.274;7.128;2022-09-09T01:02:27;15.90;99.90
12152;DHT22;6139;51.274;7.128;2022-09-09T01:03:34;15.90;99.90
12152;DHT22;6139;51.274;7.128;2022-09-09T01:04:36;15.90;99.90
12152;DHT22;6139;51.274;7.128;2022-09-09T01:05:43;15.90;99.90
12152;DHT22;6139;51.274;7.128;2022-09-09T01:06:50;15.90;99.90
12152;DHT22;6139;51.274;7.128;2022-09-09T01:07:54;15.90;99.90
12152;DHT22;6139;51.274;7.128;2022-09-09T01:09:17;15.90;99.90
12152;DHT22;6139;51.274;7.128;2022-09-09T01:10:26;15.90;99.90
12152;DHT22;6139;51.274;7.128;2022-09-09T01:11:36;15.90;99.90
12152;DHT22;6139;51.274;7.128;2022-09-09T01:12:41;15.90;99.90
12152;DHT22;6139;51.274;7.128;2022-09-09T01:13:52;15.90;99.90
12152;DHT22;6139;51.274;7.128;2022-09-09T01:15:03;15.90;99.90
12152;DHT22;6139;51.274;7.128;2022-09-09T01:16:09;15.90;99.90
12152;DHT22;6139;51.274;7.128;2022-09-09T01:17:15;15.90;99.90
12152;DHT22;6139;51.274;7.128;2022-09-09T01:18:28;15.90;99.90
12152;DHT22;6139;51.274;7.128;2022-09-09T01:19:39;15.90;99.90
12152;DHT22;6139;51.274;7.128;2022-09-09T01:20:52;15.90;99.90
12152;DHT22;6139;51.274;7.128;2022-09-09T01:22:01;15.90;99.90
12152;DHT22;6139;51.274;7.128;2022-09-09T01:25:04;15.90;99.90
12152;DHT22;6139;51.274;7.128;2022-09-09T01:26:30;15.90;99.90
12152;DHT22;6139;51.274;7.128;2022-09-09T01:27:37;15.90;99.90
12152;DHT22;6139;51.274;7.128;2022-09-09T01:28:43;15.90;99.90
12152;DHT22;6139;51.274;7.128;2022-09-09T01:29:48;15.90;99.90
12152;DHT22;6139;51.274;7.128;2022-09-09T01:30:50;16.00;99.90
12152;DHT22;6139;51.274;7.128;2022-09-09T01:31:57;15.90;99.90
12152;DHT22;6139;51.274;7.128;2022-09-09T01:32:59;16.00;99.90
12152;DHT22;6139;51.274;7.128;2022-09-09T01:34:09;16.00;99.90
12152;DHT22;6139;51.274;7.128;2022-09-09T01:35:17;16.00;99.90
12152;DHT22;6139;51.274;7.128;2022-09-09T01:36:32;15.90;99.90
12152;DHT22;6139;51.274;7.128;2022-09-09T01:37:35;15.90;99.90
12152;DHT22;6139;51.274;7.128;2022-09-09T01:38:38;15.90;99.90
12152;DHT22;6139;51.274;7.128;2022-09-09T01:39:41;15.90;99.90
12152;DHT22;6139;51.274;7.128;2022-09-09T01:40:46;15.90;99.90
12152;DHT22;6139;51.274;7.128;2022-09-09T01:41:49;15.90;99.90
12152;DHT22;6139;51.274;7.128;2022-09-09T01:42:53;15.80;99.90
12152;DHT22;6139;51.274;7.128;2022-09-09T01:43:55;15.80;99.90
12152;DHT22;6139;51.274;7.128;2022-09-09T01:44:59;15.80;99.90
12152;DHT22;6139;51.274;7.128;2022-09-09T01:46:01;15.80;99.90
12152;DHT22;6139;51.274;7.128;2022-09-09T01:47:05;15.80;99.90
12152;DHT22;6139;51.274;7.128;2022-09-09T01:48:08;15.80;99.90
12152;DHT22;6139;51.274;7.128;2022-09-09T01:49:19;15.80;99.90
12152;DHT22;6139;51.274;7.128;2022-09-09T01:50:22;15.80;99.90
12152;DHT22;6139;51.274;7.128;2022-09-09T01:51:24;15.80;99.90
12152;DHT22;6139;51.274;7.128;2022-09-09T01:52:26;15.80;99.90
12152;DHT22;6139;51.274;7.128;2022-09-09T01:53:27;15.80;99.90
12152;DHT22;6139;51.274;7.128;2022-09-09T01:54:31;15.80;99.90
12152;DHT22;6139;51.274;7.128;2022-09-09T01:55:39;15.80;99.90
12152;DHT22;6139;51.274;7.128;2022-09-09T01:56:54;15.80;99.90
12152;DHT22;6139;51.274;7.128;2022-09-09T01:58:11;15.80;99.90
12152;DHT22;6139;51.274;7.128;2022-09-09T01:59:36;15.70;99.90
12152;DHT22;6139;51.274;7.128;2022-09-09T02:00:47;15.70;99.90
12152;DHT22;6139;51.274;7.128;2022-09-09T02:02:02;15.70;99.90
12152;DHT22;6139;51.274;7.128;2022-09-09T02:03:14;15.70;99.90
12152;DHT22;6139;51.274;7.128;2022-09-09T02:04:35;15.70;99.90
12152;DHT22;6139;51.274;7.128;2022-09-09T02:05:47;15.70;99.90
12152;DHT22;6139;51.274;7.128;2022-09-09T02:07:00;15.70;99.90
12152;DHT22;6139;51.274;7.128;2022-09-09T02:08:07;15.70;99.90
12152;DHT22;6139;51.274;7.128;2022-09-09T02:09:22;15.70;99.90
12152;DHT22;6139;51.274;7.128;2022-09-09T02:10:28;15.70;99.90
12152;DHT22;6139;51.274;7.128;2022-09-09T02:11:43;15.70;99.90
12152;DHT22;6139;51.274;7.128;2022-09-09T02:12:59;15.70;99.90
12152;DHT22;6139;51.274;7.128;2022-09-09T02:14:05;15.70;99.90
12152;DHT22;6139;51.274;7.128;2022-09-09T02:15:18;15.70;99.90
12152;DHT22;6139;51.274;7.128;2022-09-09T02:16:25;15.60;99.90
12152;DHT22;6139;51.274;7.128;2022-09-09T02:17:35;15.60;99.90
12152;DHT22;6139;51.274;7.128;2022-09-09T02:18:48;15.60;99.90
12152;DHT22;6139;51.274;7.128;2022-09-09T02:20:02;15.50;99.90
12152;DHT22;6139;51.274;7.128;2022-09-09T02:21:16;15.50;99.90
12152;DHT22;6139;51.274;7.128;2022-09-09T02:22:22;15.50;99.90
12152;DHT22;6139;51.274;7.128;2022-09-09T02:23:24;15.50;99.90
12152;DHT22;6139;51.274;7.128;2022-09-09T02:24:31;15.50;99.90
12152;DHT22;6139;51.274;7.128;2022-09-09T02:25:46;15.50;99.90
12152;DHT22;6139;51.274;7.128;2022-09-09T02:26:57;15.50;99.90
12152;DHT22;6139;51.274;7.128;2022-09-09T02:28:02;15.40;99.90
12152;DHT22;6139;51.274;7.128;2022-09-09T02:29:09;15.40;99.90
12152;DHT22;6139;51.274;7.128;2022-09-09T02:30:12;15.40;99.90
12152;DHT22;6139;51.274;7.128;2022-09-09T02:31:23;15.40;99.90
12152;DHT22;6139;51.274;7.128;2022-09-09T02:32:30;15.40;99.90
12152;DHT22;6139;51.274;7.128;2022-09-09T02:33:37;15.40;99.90
12152;DHT22;6139;51.274;7.128;2022-09-09T02:34:43;15.40;99.90
12152;DHT22;6139;51.274;7.128;2022-09-09T02:35:46;15.40;99.90
12152;DHT22;6139;51.274;7.128;2022-09-09T02:36:54;15.40;99.90
12152;DHT22;6139;51.274;7.128;2022-09-09T02:37:58;15.40;99.90
12152;DHT22;6139;51.274;7.128;2022-09-09T02:39:03;15.40;99.90
12152;DHT22;6139;51.274;7.128;2022-09-09T02:40:10;15.40;99.90
12152;DHT22;6139;51.274;7.128;2022-09-09T02:41:18;15.40;99.90
12152;DHT22;6139;51.274;7.128;2022-09-09T02:42:21;15.40;99.90
12152;DHT22;6139;51.274;7.128;2022-09-09T02:43:25;15.40;99.90
12152;DHT22;6139;51.274;7.128;2022-09-09T02:44:27;15.40;99.90
12152;DHT22;6139;51.274;7.128;2022-09-09T02:45:34;15.30;99.90
12152;DHT22;6139;51.274;7.128;2022-09-09T02:46:51;15.30;99.90
12152;DHT22;6139;51.274;7.128;2022-09-09T02:47:59;15.30;99.90
12152;DHT22;6139;51.274;7.128;2022-09-09T02:49:06;15.30;99.90
12152;DHT22;6139;51.274;7.128;2022-09-09T02:50:16;15.30;99.90
12152;DHT22;6139;51.274;7.128;2022-09-09T02:51:26;15.40;99.90
12152;DHT22;6139;51.274;7.128;2022-09-09T02:52:38;15.40;99.90
12152;DHT22;6139;51.274;7.128;2022-09-09T02:53:54;15.30;99.90
12152;DHT22;6139;51.274;7.128;2022-09-09T02:55:05;15.40;99.90
12152;DHT22;6139;51.274;7.128;2022-09-09T02:56:13;15.30;99.90
12152;DHT22;6139;51.274;7.128;2022-09-09T02:57:22;15.30;99.90
12152;DHT22;6139;51.274;7.128;2022-09-09T02:58:27;15.30;99.90
12152;DHT22;6139;51.274;7.128;2022-09-09T02:59:35;15.30;99.90
12152;DHT22;6139;51.274;7.128;2022-09-09T03:00:39;15.30;99.90
12152;DHT22;6139;51.274;7.128;2022-09-09T03:01:41;15.30;99.90
12152;DHT22;6139;51.274;7.128;2022-09-09T03:02:44;15.40;99.90
12152;DHT22;6139;51.274;7.128;2022-09-09T03:03:46;15.40;99.90
12152;DHT22;6139;51.274;7.128;2022-09-09T03:04:51;15.40;99.90
12152;DHT22;6139;51.274;7.128;2022-09-09T03:05:52;15.30;99.90
12152;DHT22;6139;51.274;7.128;2022-09-09T03:06:55;15.30;99.90
12152;DHT22;6139;51.274;7.128;2022-09-09T03:07:56;15.30;99.90
12152;DHT22;6139;51.274;7.128;2022-09-09T03:08:58;15.30;99.90
12152;DHT22;6139;51.274;7.128;2022-09-09T03:10:03;15.30;99.90
12152;DHT22;6139;51.274;7.128;2022-09-09T03:11:07;15.30;99.90
12152;DHT22;6139;51.274;7.128;2022-09-09T03:12:11;15.30;99.90
12152;DHT22;6139;51.274;7.128;2022-09-09T03:13:14;15.30;99.90
12152;DHT22;6139;51.274;7.128;2022-09-09T03:14:18;15.30;99.90
12152;DHT22;6139;51.274;7.128;2022-09-09T03:15:22;15.30;99.90
12152;DHT22;6139;51.274;7.128;2022-09-09T03:16:24;15.30;99.90
12152;DHT22;6139;51.274;7.128;2022-09-09T03:17:27;15.30;99.90
12152;DHT22;6139;51.274;7.128;2022-09-09T03:18:30;15.30;99.90
12152;DHT22;6139;51.274;7.128;2022-09-09T03:19:32;15.30;99.90
12152;DHT22;6139;51.274;7.128;2022-09-09T03:20:36;15.30;99.90
12152;DHT22;6139;51.274;7.128;2022-09-09T03:21:37;15.30;99.90
12152;DHT22;6139;51.274;7.128;2022-09-09T03:22:40;15.30;99.90
12152;DHT22;6139;51.274;7.128;2022-09-09T03:23:41;15.30;99.90
12152;DHT22;6139;51.274;7.128;2022-09-09T03:24:44;15.30;99.90
12152;DHT22;6139;51.274;7.128;2022-09-09T03:25:47;15.30;99.90
12152;DHT22;6139;51.274;7.128;2022-09-09T03:26:51;15.30;99.90
12152;DHT22;6139;51.274;7.128;2022-09-09T03:27:53;15.20;99.90
12152;DHT22;6139;51.274;7.128;2022-09-09T03:28:56;15.20;99.90
12152;DHT22;6139;51.274;7.128;2022-09-09T03:29:59;15.30;99.90
12152;DHT22;6139;51.274;7.128;2022-09-09T03:31:05;15.20;99.90
12152;DHT22;6139;51.274;7.128;2022-09-09T03:32:12;15.30;99.90
12152;DHT22;6139;51.274;7.128;2022-09-09T03:33:14;15.30;99.90
12152;DHT22;6139;51.274;7.128;2022-09-09T03:34:18;15.30;99.90
12152;DHT22;6139;51.274;7.128;2022-09-09T03:35:21;15.30;99.90
12152;DHT22;6139;51.274;7.128;2022-09-09T03:36:22;15.20;99.90
12152;DHT22;6139;51.274;7.128;2022-09-09T03:37:24;15.20;99.90
12152;DHT22;6139;51.274;7.128;2022-09-09T03:38:26;15.20;99.90
12152;DHT22;6139;51.274;7.128;2022-09-09T03:39:29;15.20;99.90
12152;DHT22;6139;51.274;7.128;2022-09-09T03:40:30;15.20;99.90
12152;DHT22;6139;51.274;7.128;2022-09-09T03:41:33;15.20;99.90
12152;DHT22;6139;51.274;7.128;2022-09-09T03:42:37;15.20;99.90
12152;DHT22;6139;51.274;7.128;2022-09-09T03:43:39;15.10;99.90
12152;DHT22;6139;51.274;7.128;2022-09-09T03:44:40;15.10;99.90
12152;DHT22;6139;51.274;7.128;2022-09-09T03:45:46;15.20;99.90
12152;DHT22;6139;51.274;7.128;2022-09-09T03:46:48;15.10;99.90
12152;DHT22;6139;51.274;7.128;2022-09-09T03:47:50;15.20;99.90
12152;DHT22;6139;51.274;7.128;2022-09-09T03:48:51;15.10;99.90
12152;DHT22;6139;51.274;7.128;2022-09-09T03:49:54;15.10;99.90
12152;DHT22;6139;51.274;7.128;2022-09-09T03:50:55;15.20;99.90
12152;DHT22;6139;51.274;7.128;2022-09-09T03:51:58;15.10;99.90
12152;DHT22;6139;51.274;7.128;2022-09-09T03:53:00;15.10;99.90
12152;DHT22;6139;51.274;7.128;2022-09-09T03:54:02;15.10;99.90
12152;DHT22;6139;51.274;7.128;2022-09-09T03:55:06;15.10;99.90
12152;DHT22;6139;51.274;7.128;2022-09-09T03:56:08;15.10;99.90
12152;DHT22;6139;51.274;7.128;2022-09-09T03:57:11;15.20;99.90
12152;DHT22;6139;51.274;7.128;2022-09-09T03:58:15;15.20;99.90
12152;DHT22;6139;51.274;7.128;2022-09-09T03:59:19;15.20;99.90
12152;DHT22;6139;51.274;7.128;2022-09-09T04:00:22;15.20;99.90
12152;DHT22;6139;51.274;7.128;2022-09-09T04:01:28;15.20;99.90
12152;DHT22;6139;51.274;7.128;2022-09-09T04:02:30;15.20;99.90
12152;DHT22;6139;51.274;7.128;2022-09-09T04:03:32;15.10;99.90
12152;DHT22;6139;51.274;7.128;2022-09-09T04:04:34;15.10;99.90
12152;DHT22;6139;51.274;7.128;2022-09-09T04:05:35;15.10;99.90
12152;DHT22;6139;51.274;7.128;2022-09-09T04:06:40;15.10;99.90
12152;DHT22;6139;51.274;7.128;2022-09-09T04:07:41;15.10;99.90
12152;DHT22;6139;51.274;7.128;2022-09-09T04:08:44;15.10;99.90
12152;DHT22;6139;51.274;7.128;2022-09-09T04:09:47;15.10;99.90
12152;DHT22;6139;51.274;7.128;2022-09-09T04:10:49;15.20;99.90
12152;DHT22;6139;51.274;7.128;2022-09-09T04:11:51;15.20;99.90
12152;DHT22;6139;51.274;7.128;2022-09-09T04:12:54;15.20;99.90
12152;DHT22;6139;51.274;7.128;2022-09-09T04:13:56;15.20;99.90
12152;DHT22;6139;51.274;7.128;2022-09-09T04:14:58;15.20;99.90
12152;DHT22;6139;51.274;7.128;2022-09-09T04:16:01;15.20;99.90
12152;DHT22;6139;51.274;7.128;2022-09-09T04:17:05;15.20;99.90
12152;DHT22;6139;51.274;7.128;2022-09-09T04:18:07;15.20;99.90
12152;DHT22;6139;51.274;7.128;2022-09-09T04:19:09;15.20;99.90
12152;DHT22;6139;51.274;7.128;2022-09-09T04:20:11;15.20;99.90
12152;DHT22;6139;51.274;7.128;2022-09-09T04:21:13;15.20;99.90
12152;DHT22;6139;51.274;7.128;2022-09-09T04:22:15;15.20;99.90
12152;DHT22;6139;51.274;7.128;2022-09-09T04:23:17;15.20;99.90
12152;DHT22;6139;51.274;7.128;2022-09-09T04:24:19;15.10;99.90
12152;DHT22;6139;51.274;7.128;2022-09-09T04:25:23;15.10;99.90
12152;DHT22;6139;51.274;7.128;2022-09-09T04:26:24;15.10;99.90
12152;DHT22;6139;51.274;7.128;2022-09-09T04:27:26;15.10;99.90
12152;DHT22;6139;51.274;7.128;2022-09-09T04:28:29;15.10;99.90
12152;DHT22;6139;51.274;7.128;2022-09-09T04:29:33;15.10;99.90
12152;DHT22;6139;51.274;7.128;2022-09-09T04:30:34;15.20;99.90
12152;DHT22;6139;51.274;7.128;2022-09-09T04:31:36;15.10;99.90
12152;DHT22;6139;51.274;7.128;2022-09-09T04:32:43;15.20;99.90
12152;DHT22;6139;51.274;7.128;2022-09-09T04:33:46;15.20;99.90
12152;DHT22;6139;51.274;7.128;2022-09-09T04:34:47;15.20;99.90
12152;DHT22;6139;51.274;7.128;2022-09-09T04:35:50;15.20;99.90
12152;DHT22;6139;51.274;7.128;2022-09-09T04:36:52;15.20;99.90
12152;DHT22;6139;51.274;7.128;2022-09-09T04:37:55;15.20;99.90
12152;DHT22;6139;51.274;7.128;2022-09-09T04:38:56;15.20;99.90
12152;DHT22;6139;51.274;7.128;2022-09-09T04:39:59;15.20;99.90
12152;DHT22;6139;51.274;7.128;2022-09-09T04:41:05;15.10;99.90
12152;DHT22;6139;51.274;7.128;2022-09-09T04:42:09;15.10;99.90
12152;DHT22;6139;51.274;7.128;2022-09-09T04:43:10;15.10;99.90
12152;DHT22;6139;51.274;7.128;2022-09-09T04:44:12;15.10;99.90
12152;DHT22;6139;51.274;7.128;2022-09-09T04:45:14;15.10;99.90
12152;DHT22;6139;51.274;7.128;2022-09-09T04:46:16;15.10;99.90
12152;DHT22;6139;51.274;7.128;2022-09-09T04:47:18;15.10;99.90
12152;DHT22;6139;51.274;7.128;2022-09-09T04:48:22;15.10;99.90
12152;DHT22;6139;51.274;7.128;2022-09-09T04:49:25;15.10;99.90
12152;DHT22;6139;51.274;7.128;2022-09-09T04:50:29;15.10;99.90
12152;DHT22;6139;51.274;7.128;2022-09-09T04:51:32;15.20;99.90
12152;DHT22;6139;51.274;7.128;2022-09-09T04:52:35;15.20;99.90
12152;DHT22;6139;51.274;7.128;2022-09-09T04:53:36;15.20;99.90
12152;DHT22;6139;51.274;7.128;2022-09-09T04:54:39;15.20;99.90
12152;DHT22;6139;51.274;7.128;2022-09-09T04:55:41;15.20;99.90
12152;DHT22;6139;51.274;7.128;2022-09-09T04:56:43;15.20;99.90
12152;DHT22;6139;51.274;7.128;2022-09-09T04:57:45;15.20;99.90
12152;DHT22;6139;51.274;7.128;2022-09-09T04:58:48;15.20;99.90
12152;DHT22;6139;51.274;7.128;2022-09-09T04:59:50;15.20;99.90
12152;DHT22;6139;51.274;7.128;2022-09-09T05:00:52;15.20;99.90
12152;DHT22;6139;51.274;7.128;2022-09-09T05:01:55;15.20;99.90
12152;DHT22;6139;51.274;7.128;2022-09-09T05:02:57;15.20;99.90
12152;DHT22;6139;51.274;7.128;2022-09-09T05:04:00;15.20;99.90
12152;DHT22;6139;51.274;7.128;2022-09-09T05:05:03;15.20;99.90
12152;DHT22;6139;51.274;7.128;2022-09-09T05:06:06;15.20;99.90
12152;DHT22;6139;51.274;7.128;2022-09-09T05:07:09;15.20;99.90
12152;DHT22;6139;51.274;7.128;2022-09-09T05:08:11;15.20;99.90
12152;DHT22;6139;51.274;7.128;2022-09-09T05:09:13;15.20;99.90
12152;DHT22;6139;51.274;7.128;2022-09-09T05:10:15;15.20;99.90
12152;DHT22;6139;51.274;7.128;2022-09-09T05:11:20;15.20;99.90
12152;DHT22;6139;51.274;7.128;2022-09-09T05:12:23;15.20;99.90
12152;DHT22;6139;51.274;7.128;2022-09-09T05:13:27;15.20;99.90
12152;DHT22;6139;51.274;7.128;2022-09-09T05:14:28;15.20;99.90
12152;DHT22;6139;51.274;7.128;2022-09-09T05:15:31;15.20;99.90
12152;DHT22;6139;51.274;7.128;2022-09-09T05:16:32;15.20;99.90
12152;DHT22;6139;51.274;7.128;2022-09-09T05:17:34;15.20;99.90
12152;DHT22;6139;51.274;7.128;2022-09-09T05:18:36;15.20;99.90
12152;DHT22;6139;51.274;7.128;2022-09-09T05:19:39;15.20;99.90
12152;DHT22;6139;51.274;7.128;2022-09-09T05:20:40;15.20;99.90
12152;DHT22;6139;51.274;7.128;2022-09-09T05:21:43;15.20;99.90
12152;DHT22;6139;51.274;7.128;2022-09-09T05:22:44;15.20;99.90
12152;DHT22;6139;51.274;7.128;2022-09-09T05:23:46;15.20;99.90
12152;DHT22;6139;51.274;7.128;2022-09-09T05:24:48;15.20;99.90
12152;DHT22;6139;51.274;7.128;2022-09-09T05:25:58;15.20;99.90
12152;DHT22;6139;51.274;7.128;2022-09-09T05:26:59;15.20;99.90
12152;DHT22;6139;51.274;7.128;2022-09-09T05:28:03;15.20;99.90
12152;DHT22;6139;51.274;7.128;2022-09-09T05:29:04;15.20;99.90
12152;DHT22;6139;51.274;7.128;2022-09-09T05:30:08;15.20;99.90
12152;DHT22;6139;51.274;7.128;2022-09-09T05:31:10;15.20;99.90
12152;DHT22;6139;51.274;7.128;2022-09-09T05:32:14;15.20;99.90
12152;DHT22;6139;51.274;7.128;2022-09-09T05:33:18;15.20;99.90
12152;DHT22;6139;51.274;7.128;2022-09-09T05:34:21;15.20;99.90
12152;DHT22;6139;51.274;7.128;2022-09-09T05:35:26;15.20;99.90
12152;DHT22;6139;51.274;7.128;2022-09-09T05:36:28;15.20;99.90
12152;DHT22;6139;51.274;7.128;2022-09-09T05:37:31;15.20;99.90
12152;DHT22;6139;51.274;7.128;2022-09-09T05:38:34;15.20;99.90
12152;DHT22;6139;51.274;7.128;2022-09-09T05:39:35;15.30;99.90
12152;DHT22;6139;51.274;7.128;2022-09-09T05:40:38;15.20;99.90
12152;DHT22;6139;51.274;7.128;2022-09-09T05:41:39;15.30;99.90
12152;DHT22;6139;51.274;7.128;2022-09-09T05:42:42;15.30;99.90
12152;DHT22;6139;51.274;7.128;2022-09-09T05:43:44;15.30;99.90
12152;DHT22;6139;51.274;7.128;2022-09-09T05:44:47;15.30;99.90
12152;DHT22;6139;51.274;7.128;2022-09-09T05:45:59;15.30;99.90
12152;DHT22;6139;51.274;7.128;2022-09-09T05:47:02;15.20;99.90
12152;DHT22;6139;51.274;7.128;2022-09-09T05:48:04;15.30;99.90
12152;DHT22;6139;51.274;7.128;2022-09-09T05:49:05;15.30;99.90
12152;DHT22;6139;51.274;7.128;2022-09-09T05:50:09;15.30;99.90
12152;DHT22;6139;51.274;7.128;2022-09-09T05:51:14;15.30;99.90
12152;DHT22;6139;51.274;7.128;2022-09-09T05:52:18;15.30;99.90
12152;DHT22;6139;51.274;7.128;2022-09-09T05:53:19;15.30;99.90
12152;DHT22;6139;51.274;7.128;2022-09-09T05:54:22;15.30;99.90
12152;DHT22;6139;51.274;7.128;2022-09-09T05:55:26;15.30;99.90
12152;DHT22;6139;51.274;7.128;2022-09-09T05:56:29;15.30;99.90
12152;DHT22;6139;51.274;7.128;2022-09-09T05:57:31;15.30;99.90
12152;DHT22;6139;51.274;7.128;2022-09-09T05:58:34;15.30;99.90
12152;DHT22;6139;51.274;7.128;2022-09-09T05:59:36;15.30;99.90
12152;DHT22;6139;51.274;7.128;2022-09-09T06:00:39;15.30;99.90
12152;DHT22;6139;51.274;7.128;2022-09-09T06:01:40;15.30;99.90
12152;DHT22;6139;51.274;7.128;2022-09-09T06:02:50;15.30;99.90
12152;DHT22;6139;51.274;7.128;2022-09-09T06:03:53;15.30;99.90
12152;DHT22;6139;51.274;7.128;2022-09-09T06:04:57;15.30;99.90
12152;DHT22;6139;51.274;7.128;2022-09-09T06:06:00;15.30;99.90
12152;DHT22;6139;51.274;7.128;2022-09-09T06:07:04;15.30;99.90
12152;DHT22;6139;51.274;7.128;2022-09-09T06:08:06;15.40;99.90
12152;DHT22;6139;51.274;7.128;2022-09-09T06:09:08;15.40;99.90
12152;DHT22;6139;51.274;7.128;2022-09-09T06:10:12;15.40;99.90
12152;DHT22;6139;51.274;7.128;2022-09-09T06:11:17;15.40;99.90
12152;DHT22;6139;51.274;7.128;2022-09-09T06:12:19;15.30;99.90
12152;DHT22;6139;51.274;7.128;2022-09-09T06:13:21;15.40;99.90
12152;DHT22;6139;51.274;7.128;2022-09-09T06:14:25;15.40;99.90
12152;DHT22;6139;51.274;7.128;2022-09-09T06:15:27;15.40;99.90
12152;DHT22;6139;51.274;7.128;2022-09-09T06:16:32;15.40;99.90
12152;DHT22;6139;51.274;7.128;2022-09-09T06:17:33;15.40;99.90
12152;DHT22;6139;51.274;7.128;2022-09-09T06:18:35;15.40;99.90
12152;DHT22;6139;51.274;7.128;2022-09-09T06:19:37;15.40;99.90
12152;DHT22;6139;51.274;7.128;2022-09-09T06:20:39;15.40;99.90
12152;DHT22;6139;51.274;7.128;2022-09-09T06:21:40;15.40;99.90
12152;DHT22;6139;51.274;7.128;2022-09-09T06:22:45;15.40;99.90
12152;DHT22;6139;51.274;7.128;2022-09-09T06:23:49;15.40;99.90
12152;DHT22;6139;51.274;7.128;2022-09-09T06:24:52;15.40;99.90
12152;DHT22;6139;51.274;7.128;2022-09-09T06:26:01;15.40;99.90
12152;DHT22;6139;51.274;7.128;2022-09-09T06:27:04;15.40;99.90
12152;DHT22;6139;51.274;7.128;2022-09-09T06:28:10;15.40;99.90
12152;DHT22;6139;51.274;7.128;2022-09-09T06:29:11;15.40;99.90
12152;DHT22;6139;51.274;7.128;2022-09-09T06:30:15;15.40;99.90
12152;DHT22;6139;51.274;7.128;2022-09-09T06:31:19;15.40;99.90
12152;DHT22;6139;51.274;7.128;2022-09-09T06:32:23;15.40;99.90
12152;DHT22;6139;51.274;7.128;2022-09-09T06:33:26;15.40;99.90
12152;DHT22;6139;51.274;7.128;2022-09-09T06:34:27;15.30;99.90
12152;DHT22;6139;51.274;7.128;2022-09-09T06:35:31;15.30;99.90
12152;DHT22;6139;51.274;7.128;2022-09-09T06:36:34;15.30;99.90
12152;DHT22;6139;51.274;7.128;2022-09-09T06:37:37;15.30;99.90
12152;DHT22;6139;51.274;7.128;2022-09-09T06:38:41;15.30;99.90
12152;DHT22;6139;51.274;7.128;2022-09-09T06:39:42;15.30;99.90
12152;DHT22;6139;51.274;7.128;2022-09-09T06:40:51;15.30;99.90
12152;DHT22;6139;51.274;7.128;2022-09-09T06:41:52;15.30;99.90
12152;DHT22;6139;51.274;7.128;2022-09-09T06:43:33;15.30;99.90
12152;DHT22;6139;51.274;7.128;2022-09-09T06:44:35;15.30;99.90
12152;DHT22;6139;51.274;7.128;2022-09-09T06:45:40;15.30;99.90
12152;DHT22;6139;51.274;7.128;2022-09-09T06:46:43;15.30;99.90
12152;DHT22;6139;51.274;7.128;2022-09-09T06:47:48;15.30;99.90
12152;DHT22;6139;51.274;7.128;2022-09-09T06:48:50;15.40;99.90
12152;DHT22;6139;51.274;7.128;2022-09-09T06:49:52;15.30;99.90
12152;DHT22;6139;51.274;7.128;2022-09-09T06:51:01;15.30;99.90
12152;DHT22;6139;51.274;7.128;2022-09-09T06:52:03;15.30;99.90
12152;DHT22;6139;51.274;7.128;2022-09-09T06:53:06;15.30;99.90
12152;DHT22;6139;51.274;7.128;2022-09-09T06:54:09;15.30;99.90
12152;DHT22;6139;51.274;7.128;2022-09-09T06:55:12;15.30;99.90
12152;DHT22;6139;51.274;7.128;2022-09-09T06:56:25;15.30;99.90
12152;DHT22;6139;51.274;7.128;2022-09-09T06:57:29;15.30;99.90
12152;DHT22;6139;51.274;7.128;2022-09-09T06:58:31;15.30;99.90
12152;DHT22;6139;51.274;7.128;2022-09-09T06:59:35;15.40;99.90
12152;DHT22;6139;51.274;7.128;2022-09-09T07:00:36;15.40;99.90